Time;durP1;ratioP1;P1;durP2;ratioP2;P2;SDS_P1;SDS_P2;PMS_P1;PMS_P2;Temp;Humidity;BMP_temperature;BMP_pressure;BME280_temperature;BME280_humidity;BME280_pressure;Samples;Min_cycle;Max_cycle;Signal;HPM_P1;HPM_P2
2023/06/24 03:00:50;;;;;;;;;;;23.90;47.60;;;;;;5959344;23;45870;-84
2023/06/24 03:03:16;;;;;;;;;;;23.80;47.70;;;;;;4925244;28;50738;-85
2023/06/24 03:05:48;;;;;;;;;;;23.70;47.80;;;;;;4945039;28;44771;-85
2023/06/24 03:08:13;;;;;;;;;;;23.70;48.00;;;;;;4920535;28;45538;-85
2023/06/24 03:10:39;;;;;;;;;;;23.70;48.10;;;;;;4952301;28;47205;-85
2023/06/24 03:13:04;;;;;;;;;;;23.60;48.00;;;;;;4927004;28;45192;-86
2023/06/24 03:15:30;;;;;;;;;;;23.60;48.10;;;;;;4917194;28;44601;-85
2023/06/24 03:17:55;;;;;;;;;;;23.60;48.20;;;;;;4934409;28;45395;-86
2023/06/24 03:20:21;;;;;;;;;;;23.60;48.10;;;;;;4951671;28;45293;-85
2023/06/24 03:22:46;;;;;;;;;;;23.60;48.10;;;;;;4928056;28;44739;-85
2023/06/24 03:25:12;;;;;;;;;;;23.70;48.00;;;;;;4920507;28;45235;-85
2023/06/24 03:27:40;;;;;;;;;;;23.80;47.90;;;;;;4920907;28;44995;-85
2023/06/24 03:30:10;;;;;;;;;;;23.80;47.70;;;;;;4912551;28;47112;-87
2023/06/24 03:32:36;;;;;;;;;;;23.80;47.70;;;;;;4953500;28;45334;-86
2023/06/24 03:35:06;;;;;;;;;;;23.70;47.70;;;;;;4947659;28;45151;-86
2023/06/24 03:37:32;;;;;;;;;;;23.70;47.60;;;;;;4932243;28;45343;-86
2023/06/24 03:39:57;;;;;;;;;;;23.80;47.60;;;;;;4930543;28;45440;-86
2023/06/24 03:42:23;;;;;;;;;;;23.80;47.50;;;;;;4918772;28;44898;-86
2023/06/24 03:44:49;;;;;;;;;;;23.70;48.10;;;;;;4934593;28;44731;-84
2023/06/24 03:47:14;;;;;;;;;;;23.80;47.40;;;;;;4938659;28;45271;-84
2023/06/24 03:49:40;;;;;;;;;;;23.80;47.50;;;;;;4946388;28;45386;-85
2023/06/24 03:52:08;;;;;;;;;;;23.80;47.40;;;;;;4938730;28;45239;-85
2023/06/24 03:54:34;;;;;;;;;;;23.80;47.40;;;;;;4934186;28;45187;-85
2023/06/24 03:56:59;;;;;;;;;;;23.80;47.40;;;;;;4918690;28;45161;-85
2023/06/24 03:59:25;;;;;;;;;;;23.80;47.40;;;;;;4936084;28;47406;-86
2023/06/24 04:01:51;;;;;;;;;;;23.70;47.30;;;;;;4943712;28;45292;-85
2023/06/24 04:04:16;;;;;;;;;;;23.70;47.30;;;;;;4965147;28;44668;-86
2023/06/24 04:06:42;;;;;;;;;;;23.70;47.30;;;;;;4952792;28;44789;-85
2023/06/24 04:09:09;;;;;;;;;;;23.70;47.40;;;;;;4958945;28;47283;-85
2023/06/24 04:11:35;;;;;;;;;;;23.70;47.50;;;;;;4952040;28;44922;-86
2023/06/24 04:14:01;;;;;;;;;;;23.70;48.10;;;;;;4959298;28;45184;-86
2023/06/24 04:16:27;;;;;;;;;;;23.70;47.50;;;;;;4942850;28;44856;-85
2023/06/24 04:18:52;;;;;;;;;;;23.70;47.60;;;;;;4970236;28;47080;-85
2023/06/24 04:21:18;;;;;;;;;;;23.70;47.60;;;;;;4949760;28;45208;-85
2023/06/24 04:23:44;;;;;;;;;;;23.80;47.70;;;;;;4953710;28;44963;-86
2023/06/24 04:26:09;;;;;;;;;;;23.80;47.60;;;;;;4932825;28;45100;-85
2023/06/24 04:28:35;;;;;;;;;;;23.80;47.70;;;;;;4951760;28;45464;-86
2023/06/24 04:31:00;;;;;;;;;;;23.80;47.70;;;;;;4951775;28;45098;-86
2023/06/24 04:33:35;;;;;;;;;;;23.80;47.70;;;;;;4964800;28;45177;-85
2023/06/24 04:36:01;;;;;;;;;;;23.80;47.80;;;;;;4954568;28;45215;-84
2023/06/24 04:38:26;;;;;;;;;;;23.80;47.80;;;;;;4955106;28;46797;-84
2023/06/24 04:40:52;;;;;;;;;;;23.80;47.90;;;;;;4970678;28;45235;-86
2023/06/24 04:43:18;;;;;;;;;;;23.80;48.00;;;;;;4951871;28;44610;-86
2023/06/24 04:45:43;;;;;;;;;;;23.80;48.10;;;;;;4950231;28;45172;-85
2023/06/24 04:48:09;;;;;;;;;;;23.70;48.10;;;;;;4957887;28;46837;-86
2023/06/24 04:50:34;;;;;;;;;;;23.70;48.30;;;;;;4958002;28;45191;-87
2023/06/24 04:53:01;;;;;;;;;;;23.70;48.40;;;;;;4963304;28;44659;-86
2023/06/24 04:55:29;;;;;;;;;;;23.70;48.40;;;;;;4950297;28;45335;-86
2023/06/24 04:57:55;;;;;;;;;;;23.80;48.50;;;;;;4966519;28;48398;-86
2023/06/24 05:00:23;;;;;;;;;;;23.80;48.40;;;;;;4957962;28;44927;-87
2023/06/24 05:02:48;;;;;;;;;;;23.80;48.40;;;;;;4966847;28;44645;-85
2023/06/24 05:05:14;;;;;;;;;;;23.80;48.60;;;;;;4985358;28;45637;-87
2023/06/24 05:07:39;;;;;;;;;;;23.70;48.70;;;;;;4956960;28;45398;-86
2023/06/24 05:10:06;;;;;;;;;;;23.70;48.90;;;;;;4958512;28;45174;-86
2023/06/24 05:12:32;;;;;;;;;;;23.70;48.90;;;;;;4950882;28;45279;-85
2023/06/24 05:14:57;;;;;;;;;;;23.80;49.00;;;;;;4956143;28;45433;-86
2023/06/24 05:17:26;;;;;;;;;;;23.80;48.90;;;;;;4960929;28;46927;-86
2023/06/24 05:19:51;;;;;;;;;;;23.80;48.80;;;;;;4932425;28;45037;-86
2023/06/24 05:22:17;;;;;;;;;;;23.90;49.20;;;;;;4957130;28;44706;-86
2023/06/24 05:24:43;;;;;;;;;;;24.00;48.80;;;;;;4941278;28;45477;-86
2023/06/24 05:27:09;;;;;;;;;;;24.00;48.90;;;;;;4954880;28;47367;-86
2023/06/24 05:29:34;;;;;;;;;;;24.00;48.90;;;;;;4955974;28;45420;-86
2023/06/24 05:32:01;;;;;;;;;;;24.10;49.00;;;;;;4948659;28;45156;-85
2023/06/24 05:34:27;;;;;;;;;;;24.10;49.00;;;;;;4960483;28;44759;-85
2023/06/24 05:36:53;;;;;;;;;;;24.10;48.80;;;;;;4958304;28;45277;-85
2023/06/24 05:39:19;;;;;;;;;;;24.10;48.70;;;;;;4953984;28;44631;-84
2023/06/24 05:41:45;;;;;;;;;;;24.10;48.70;;;;;;4989260;28;44605;-85
2023/06/24 05:44:10;;;;;;;;;;;24.20;48.60;;;;;;4981282;28;45511;-85
2023/06/24 05:46:36;;;;;;;;;;;24.20;48.70;;;;;;4964526;28;46274;-86
2023/06/24 05:49:01;;;;;;;;;;;24.20;48.70;;;;;;4947791;28;45144;-85
2023/06/24 05:51:27;;;;;;;;;;;24.20;48.70;;;;;;4979270;28;45225;-86
2023/06/24 05:53:52;;;;;;;;;;;24.20;48.70;;;;;;4980374;28;44996;-85
2023/06/24 05:56:19;;;;;;;;;;;24.20;48.80;;;;;;4963961;28;46776;-85
2023/06/24 05:58:44;;;;;;;;;;;24.10;48.90;;;;;;4960062;28;45145;-85
2023/06/24 06:01:10;;;;;;;;;;;24.20;49.10;;;;;;4974793;28;45266;-85
2023/06/24 06:03:35;;;;;;;;;;;24.10;49.10;;;;;;4965760;28;44695;-86
2023/06/24 06:06:01;;;;;;;;;;;24.10;49.00;;;;;;4995036;28;45319;-85
2023/06/24 06:08:26;;;;;;;;;;;24.20;49.00;;;;;;4983140;28;45565;-86
2023/06/24 06:10:52;;;;;;;;;;;24.20;49.10;;;;;;4996463;28;45384;-85
2023/06/24 06:13:17;;;;;;;;;;;24.20;49.10;;;;;;4977510;28;45174;-85
2023/06/24 06:15:43;;;;;;;;;;;24.20;49.00;;;;;;4982141;28;47746;-84
2023/06/24 06:18:08;;;;;;;;;;;24.30;48.90;;;;;;4987732;28;45481;-84
2023/06/24 06:20:34;;;;;;;;;;;24.30;48.90;;;;;;4978739;28;44631;-83
2023/06/24 06:22:59;;;;;;;;;;;24.40;49.00;;;;;;4972601;28;45173;-85
2023/06/24 06:25:25;;;;;;;;;;;24.40;48.90;;;;;;4982263;28;48402;-85
2023/06/24 06:27:50;;;;;;;;;;;24.40;48.90;;;;;;4971900;28;44651;-85
2023/06/24 06:30:19;;;;;;;;;;;24.40;48.60;;;;;;4958587;28;44758;-85
2023/06/24 06:32:44;;;;;;;;;;;24.50;48.80;;;;;;4983230;28;45195;-84
2023/06/24 06:35:10;;;;;;;;;;;24.50;48.50;;;;;;4958484;28;47070;-85
2023/06/24 06:37:35;;;;;;;;;;;24.60;48.40;;;;;;4961594;28;44960;-84
2023/06/24 06:40:05;;;;;;;;;;;24.70;48.40;;;;;;4979021;28;45425;-85
2023/06/24 06:42:30;;;;;;;;;;;24.80;48.20;;;;;;4967264;28;45520;-84
2023/06/24 06:44:56;;;;;;;;;;;24.80;48.20;;;;;;4970076;28;46037;-84
2023/06/24 06:47:22;;;;;;;;;;;24.80;48.10;;;;;;4972847;28;45399;-85
2023/06/24 06:49:47;;;;;;;;;;;24.80;48.00;;;;;;4991534;28;45136;-86
2023/06/24 06:52:13;;;;;;;;;;;24.80;48.00;;;;;;4977649;28;44718;-86
2023/06/24 06:54:39;;;;;;;;;;;24.90;48.00;;;;;;4973677;28;45253;-83
2023/06/24 06:57:04;;;;;;;;;;;24.90;48.00;;;;;;4975062;28;45261;-85
2023/06/24 06:59:30;;;;;;;;;;;24.90;47.90;;;;;;4988724;28;45216;-84
2023/06/24 07:01:56;;;;;;;;;;;24.90;47.90;;;;;;4988568;28;44904;-84
2023/06/24 07:04:21;;;;;;;;;;;24.90;47.90;;;;;;4971424;28;47220;-86
2023/06/24 07:06:47;;;;;;;;;;;24.90;48.00;;;;;;4966901;28;44698;-85
2023/06/24 07:09:13;;;;;;;;;;;24.90;47.90;;;;;;4983678;28;45131;-86
2023/06/24 07:11:40;;;;;;;;;;;24.90;47.80;;;;;;4981628;28;44689;-87
2023/06/24 07:14:07;;;;;;;;;;;24.90;47.90;;;;;;4984342;28;47355;-87
2023/06/24 07:16:43;;;;;;;;;;;24.90;47.80;;;;;;4994038;28;44842;-84
2023/06/24 07:19:15;;;;;;;;;;;25.00;48.30;;;;;;4978775;28;45731;-84
2023/06/24 07:21:41;;;;;;;;;;;25.00;47.80;;;;;;4987130;28;45166;-84
2023/06/24 07:24:06;;;;;;;;;;;25.00;48.40;;;;;;4975197;28;46813;-85
2023/06/24 07:26:34;;;;;;;;;;;25.10;47.80;;;;;;4958136;28;45210;-83
2023/06/24 07:28:59;;;;;;;;;;;25.10;47.60;;;;;;4974440;28;45141;-84
2023/06/24 07:31:25;;;;;;;;;;;25.10;47.60;;;;;;4974221;28;44878;-83
2023/06/24 07:33:51;;;;;;;;;;;25.10;47.60;;;;;;4961740;28;45309;-87
2023/06/24 07:36:17;;;;;;;;;;;25.10;47.70;;;;;;4986299;28;44707;-87
2023/06/24 07:38:42;;;;;;;;;;;25.10;47.70;;;;;;4988768;28;44770;-87
2023/06/24 07:41:08;;;;;;;;;;;25.10;47.70;;;;;;4984010;28;45068;-88
2023/06/24 07:43:33;;;;;;;;;;;25.10;47.70;;;;;;4985902;28;46836;-85
2023/06/24 07:45:59;;;;;;;;;;;25.10;47.80;;;;;;4975716;28;45044;-83
2023/06/24 07:48:25;;;;;;;;;;;25.20;47.90;;;;;;4958034;28;45224;-83
2023/06/24 07:50:50;;;;;;;;;;;25.20;47.90;;;;;;4981370;28;45137;-84
2023/06/24 07:53:16;;;;;;;;;;;25.20;48.50;;;;;;4975681;28;47406;-84
2023/06/24 07:55:41;;;;;;;;;;;25.20;47.90;;;;;;4974701;28;45550;-85
2023/06/24 07:58:07;;;;;;;;;;;25.20;47.80;;;;;;4974483;28;45215;-85
2023/06/24 08:00:32;;;;;;;;;;;25.30;47.80;;;;;;4972576;28;45202;-84
2023/06/24 08:02:58;;;;;;;;;;;25.20;47.80;;;;;;4975263;28;45219;-83
2023/06/24 08:05:23;;;;;;;;;;;25.30;47.70;;;;;;4987870;28;45296;-82
2023/06/24 08:07:50;;;;;;;;;;;25.30;47.70;;;;;;4966179;28;44731;-84
2023/06/24 08:10:15;;;;;;;;;;;25.30;47.60;;;;;;4958856;28;45213;-84
2023/06/24 08:12:41;;;;;;;;;;;25.30;47.20;;;;;;4975004;28;47245;-84
2023/06/24 08:15:07;;;;;;;;;;;25.40;47.80;;;;;;4984770;28;44952;-83
2023/06/24 08:17:32;;;;;;;;;;;25.40;47.10;;;;;;4975770;28;45369;-84
2023/06/24 08:19:58;;;;;;;;;;;25.40;47.10;;;;;;4978411;28;45268;-86
2023/06/24 08:22:23;;;;;;;;;;;25.40;47.00;;;;;;4979135;28;46427;-86
2023/06/24 08:24:49;;;;;;;;;;;25.40;47.00;;;;;;4975415;28;44669;-85
2023/06/24 08:27:14;;;;;;;;;;;25.40;47.10;;;;;;4967346;28;45157;-84
2023/06/24 08:29:40;;;;;;;;;;;25.40;47.00;;;;;;4962549;28;45497;-85
2023/06/24 08:32:08;;;;;;;;;;;25.40;47.00;;;;;;4968814;28;46474;-83
2023/06/24 08:34:34;;;;;;;;;;;25.40;46.90;;;;;;4971268;28;45280;-84
2023/06/24 08:36:59;;;;;;;;;;;25.40;46.70;;;;;;4968071;28;45403;-85
2023/06/24 08:39:25;;;;;;;;;;;25.40;46.40;;;;;;4973087;28;45332;-86
2023/06/24 08:41:51;;;;;;;;;;;25.40;46.30;;;;;;4997979;28;48004;-85
2023/06/24 08:44:17;;;;;;;;;;;25.50;46.10;;;;;;4961155;28;45618;-86
2023/06/24 08:46:51;;;;;;;;;;;25.50;46.20;;;;;;5014031;28;45529;-87
2023/06/24 08:49:30;;;;;;;;;;;25.50;46.10;;;;;;4994116;28;45011;-86
2023/06/24 08:52:03;;;;;;;;;;;25.50;46.10;;;;;;4998228;28;45319;-87
2023/06/24 08:54:34;;;;;;;;;;;25.50;45.80;;;;;;4986335;28;44672;-86
2023/06/24 08:57:01;;;;;;;;;;;25.50;45.60;;;;;;4986311;28;45150;-86
2023/06/24 08:59:27;;;;;;;2.35;1.85;;;25.60;45.70;;;;;;4980171;28;45504;-86
2023/06/24 09:01:52;;;;;;;;;;;25.60;46.10;;;;;;4958393;23;45526;-55
2023/06/24 09:04:18;;;;;;;;;;;25.70;45.40;;;;;;4965729;28;44902;-57
2023/06/24 09:06:44;;;;;;;;;;;25.70;45.30;;;;;;4943154;28;45182;-57
2023/06/24 09:09:19;;;;;;;;;;;25.70;45.20;;;;;;4969021;28;45088;-56
2023/06/24 09:11:55;;;;;;;;;;;25.70;45.00;;;;;;4962905;28;45838;-53
2023/06/24 09:14:21;;;;;;;;;;;25.70;44.80;;;;;;4968570;28;44687;-56
2023/06/24 09:16:53;;;;;;;;;;;25.70;44.70;;;;;;4958339;28;45764;-53
2023/06/24 09:19:22;;;;;;;;;;;25.70;44.30;;;;;;4967817;28;45647;-55
2023/06/24 09:21:48;;;;;;;;;;;25.70;44.10;;;;;;4962232;28;45981;-56
2023/06/24 09:24:13;;;;;;;;;;;25.80;44.10;;;;;;4949391;28;44802;-62
2023/06/24 09:26:41;;;;;;;;;;;25.80;43.90;;;;;;4955508;28;45002;-56
2023/06/24 09:29:08;;;;;;;;;;;25.90;43.80;;;;;;4938610;28;45049;-57
2023/06/24 09:31:33;;;;;;;;;;;25.80;43.30;;;;;;4957898;28;45971;-55
2023/06/24 09:33:59;;;;;;;;;;;25.80;43.10;;;;;;4971653;28;44985;-56
2023/06/24 09:36:24;;;;;;;;;;;25.90;42.50;;;;;;4965009;28;44834;-54
2023/06/24 09:38:50;;;;;;;;;;;25.90;42.50;;;;;;4942409;28;44735;-56
2023/06/24 09:41:15;;;;;;;;;;;25.90;42.80;;;;;;4963630;28;46110;-58
2023/06/24 09:43:42;;;;;;;;;;;25.90;42.60;;;;;;4968426;28;44787;-56
2023/06/24 09:46:07;;;;;;;;;;;25.90;42.70;;;;;;4966962;28;44825;-57
2023/06/24 09:48:33;;;;;;;;;;;26.00;42.60;;;;;;4951101;28;44993;-56
2023/06/24 09:50:59;;;;;;;;;;;25.90;42.50;;;;;;4955227;28;45221;-57
2023/06/24 09:53:25;;;;;;;;;;;26.00;42.60;;;;;;4967805;28;44737;-57
2023/06/24 09:55:50;;;;;;;;;;;26.00;42.60;;;;;;4967297;28;45309;-54
2023/06/24 09:58:16;;;;;;;;;;;26.00;42.30;;;;;;4969749;28;45298;-61
2023/06/24 10:00:42;;;;;;;;;;;26.00;42.40;;;;;;4958626;28;45980;-55
2023/06/24 10:03:07;;;;;;;;;;;26.00;42.10;;;;;;4970960;28;44902;-57
2023/06/24 10:05:33;;;;;;;;;;;26.10;42.10;;;;;;4954557;28;45000;-56
2023/06/24 10:07:58;;;;;;;;;;;26.10;41.90;;;;;;4940020;28;44947;-57
2023/06/24 10:10:24;;;;;;;;;;;26.10;41.70;;;;;;4953646;28;45146;-55
2023/06/24 10:12:49;;;;;;;;;;;26.10;41.80;;;;;;4963256;28;44723;-56
2023/06/24 10:15:33;;;;;;;;;;;26.20;41.90;;;;;;4957702;28;44955;-57
2023/06/24 10:18:03;;;;;;;;;;;26.10;41.90;;;;;;4949961;28;45133;-57
2023/06/24 10:20:28;;;;;;;;;;;26.20;41.70;;;;;;4963675;28;45960;-56
2023/06/24 10:22:54;;;;;;;;;;;26.20;41.60;;;;;;4969610;28;45336;-56
2023/06/24 10:25:20;;;;;;;;;;;26.20;41.60;;;;;;4943164;28;45281;-54
2023/06/24 10:27:46;;;;;;;;;;;26.20;41.10;;;;;;4963974;28;44999;-61
2023/06/24 10:30:23;;;;;;;;;;;26.20;40.90;;;;;;4943680;28;46117;-56
2023/06/24 10:32:53;;;;;;;;;;;26.20;40.50;;;;;;4947621;28;45185;-56
2023/06/24 10:35:25;;;;;;;;;;;26.30;40.70;;;;;;4946764;28;44703;-59
2023/06/24 10:37:55;;;;;;;;;;;26.30;40.60;;;;;;4948829;28;44829;-54
2023/06/24 10:40:33;;;;;;;;;;;26.30;39.90;;;;;;4930103;28;45094;-57
2023/06/24 10:43:00;;;;;;;;;;;26.30;40.00;;;;;;4966763;28;44995;-55
2023/06/24 10:45:25;;;;;;;;;;;26.40;40.00;;;;;;4960524;28;44882;-57
2023/06/24 10:47:56;;;;;;;;;;;26.40;39.70;;;;;;4962470;28;44970;-56
2023/06/24 10:50:23;;;;;;;;;;;26.40;39.80;;;;;;4958610;28;45158;-59
2023/06/24 10:52:49;;;;;;;;;;;26.50;40.00;;;;;;4969441;28;44854;-56
2023/06/24 10:55:15;;;;;;;;;;;26.40;40.10;;;;;;4951186;28;44967;-57
2023/06/24 10:57:40;;;;;;;;;;;26.50;39.90;;;;;;4968798;28;45291;-57
2023/06/24 11:00:06;;;;;;;;;;;26.50;39.80;;;;;;4944870;28;45174;-60
2023/06/24 11:02:32;;;;;;;;;;;26.50;40.00;;;;;;4946451;28;44895;-54
2023/06/24 11:04:58;;;;;;;;;;;26.50;40.20;;;;;;4969203;28;45600;-57
2023/06/24 11:07:39;;;;;;;;;;;26.50;40.00;;;;;;4969011;28;44770;-56
2023/06/24 11:10:09;;;;;;;;;;;26.50;40.40;;;;;;4949374;28;46159;-60
2023/06/24 11:12:35;;;;;;;;;;;26.60;40.20;;;;;;4965010;28;44965;-57
2023/06/24 11:15:04;;;;;;;;;;;26.50;40.30;;;;;;4975662;28;45313;-56
2023/06/24 11:17:30;;;;;;;;;;;26.60;40.60;;;;;;4945438;28;45474;-57
2023/06/24 11:19:56;;;;;;;;;;;26.60;40.40;;;;;;4975603;28;46041;-57
2023/06/24 11:22:21;;;;;;;;;;;26.60;40.30;;;;;;4953392;28;44934;-58
2023/06/24 11:24:47;;;;;;;;;;;26.70;40.10;;;;;;4954607;28;44825;-56
2023/06/24 11:27:12;;;;;;;;;;;26.70;40.10;;;;;;4970732;28;45008;-57
2023/06/24 11:29:38;;;;;;;;;;;26.70;40.20;;;;;;4975998;28;45114;-55
2023/06/24 11:32:03;;;;;;;;;;;26.70;40.20;;;;;;4948663;28;45121;-57
2023/06/24 11:34:29;;;;;;;;;;;26.80;39.90;;;;;;4955835;28;44894;-55
2023/06/24 11:36:55;;;;;;;;;;;26.80;39.90;;;;;;4946741;28;48092;-57
2023/06/24 11:39:23;;;;;;;;;;;26.80;39.40;;;;;;4967531;28;46011;-56
2023/06/24 11:41:49;;;;;;;;;;;26.80;39.30;;;;;;4966636;28;44776;-58
2023/06/24 11:44:15;;;;;;;;;;;26.90;40.00;;;;;;4977960;28;44930;-54
2023/06/24 11:46:40;;;;;;;;;;;26.90;39.70;;;;;;4943193;28;46195;-55
2023/06/24 11:49:06;;;;;;;;;;;26.90;39.30;;;;;;4970379;28;45878;-55
2023/06/24 11:51:32;;;;;;;;;;;26.90;39.20;;;;;;4967784;28;45257;-56
2023/06/24 11:54:01;;;;;;;;;;;26.90;39.40;;;;;;4971128;28;45152;-62
2023/06/24 11:56:38;;;;;;;;;;;26.90;39.40;;;;;;4969627;28;45082;-59
2023/06/24 11:59:09;;;;;;;;;;;27.00;39.50;;;;;;4974111;28;46322;-57
2023/06/24 12:01:39;;;;;;;;;;;27.00;39.60;;;;;;4941913;28;44939;-56
2023/06/24 12:04:09;;;;;;;;;;;27.00;39.80;;;;;;4969264;28;45136;-57
2023/06/24 12:06:34;;;;;;;;;;;27.00;39.40;;;;;;4957892;28;44659;-56
2023/06/24 12:09:00;;;;;;;;;;;27.00;39.10;;;;;;4971779;28;46089;-54
2023/06/24 12:11:25;;;;;;;;;;;27.00;39.10;;;;;;4964121;28;45025;-56
2023/06/24 12:13:51;;;;;;;;;;;27.00;39.40;;;;;;4971734;28;44901;-56
2023/06/24 12:16:16;;;;;;;;;;;27.00;39.20;;;;;;4960694;28;44981;-57
2023/06/24 12:18:42;;;;;;;;;;;27.00;38.70;;;;;;4970554;28;45817;-56
2023/06/24 12:21:07;;;;;;;;;;;27.00;38.80;;;;;;4964393;28;44841;-58
2023/06/24 12:23:33;;;;;;;;;;;27.00;39.00;;;;;;4967986;28;45534;-57
2023/06/24 12:25:58;;;;;;;;;;;27.10;39.10;;;;;;4963692;28;45333;-57
2023/06/24 12:28:24;;;;;;;;;;;27.10;38.90;;;;;;4976068;28;45923;-57
2023/06/24 12:30:50;;;;;;;;;;;27.10;39.10;;;;;;4964516;28;44967;-55
2023/06/24 12:33:18;;;;;;;;;;;27.10;39.00;;;;;;4967623;28;45168;-55
2023/06/24 12:35:44;;;;;;;;;;;27.10;39.10;;;;;;4965212;28;45148;-57
2023/06/24 12:38:09;;;;;;;;;;;27.20;39.00;;;;;;4965725;28;46857;-57
2023/06/24 12:40:35;;;;;;;;;;;27.20;39.00;;;;;;4943139;28;45284;-54
2023/06/24 12:43:00;;;;;;;;;;;27.20;38.20;;;;;;4977008;28;44655;-55
2023/06/24 12:45:26;;;;;;;;;;;27.20;38.10;;;;;;4963657;28;45028;-57
2023/06/24 12:47:52;;;;;;;;;;;27.30;38.00;;;;;;4963059;28;45711;-54
2023/06/24 12:50:17;;;;;;;;;;;27.30;37.90;;;;;;4966339;28;44946;-54
2023/06/24 12:52:43;;;;;;;;;;;27.30;37.70;;;;;;4936828;28;45047;-57
2023/06/24 12:55:08;;;;;;;;;;;27.30;37.50;;;;;;4968557;28;44594;-61
2023/06/24 12:57:34;;;;;;;;;;;27.40;37.80;;;;;;4969096;28;45524;-57
2023/06/24 13:00:00;;;;;;;;;;;27.40;37.60;;;;;;4969830;28;45069;-58
2023/06/24 13:02:25;;;;;;;;;;;27.40;37.70;;;;;;4966377;28;45280;-57
2023/06/24 13:04:51;;;;;;;;;;;27.40;37.50;;;;;;4971866;28;44863;-55
2023/06/24 13:07:16;;;;;;;;;;;27.40;37.40;;;;;;4968019;28;46158;-57
2023/06/24 13:09:42;;;;;;;;;;;27.40;37.10;;;;;;4969353;28;44676;-54
2023/06/24 13:12:08;;;;;;;;;;;27.40;37.20;;;;;;4972248;28;45708;-55
2023/06/24 13:14:34;;;;;;;;;;;27.50;37.00;;;;;;4963535;28;45299;-57
2023/06/24 13:16:59;;;;;;;;;;;27.50;36.80;;;;;;4965235;28;46189;-57
2023/06/24 13:19:25;;;;;;;;;;;27.50;36.60;;;;;;4969080;28;44725;-55
2023/06/24 13:21:50;;;;;;;;;;;27.60;36.60;;;;;;4964082;28;45167;-58
2023/06/24 13:24:16;;;;;;;;;;;27.60;36.60;;;;;;4980415;28;45770;-58
2023/06/24 13:26:41;;;;;;;;;;;27.60;36.10;;;;;;4968031;28;46623;-56
2023/06/24 13:29:07;;;;;;;;;;;27.60;36.10;;;;;;4975990;28;44636;-60
2023/06/24 13:31:33;;;;;;;;;;;27.60;36.10;;;;;;4942887;28;45272;-56
2023/06/24 13:33:58;;;;;;;;;;;27.60;35.90;;;;;;4974117;28;44915;-54
2023/06/24 13:36:34;;;;;;;;;;;27.70;36.00;;;;;;4972542;28;45920;-57
2023/06/24 13:39:00;;;;;;;;;;;27.70;35.80;;;;;;4959448;28;44869;-52
2023/06/24 13:41:29;;;;;;;;;;;27.60;35.80;;;;;;4969230;28;45447;-54
2023/06/24 13:43:55;;;;;;;;;;;27.70;36.00;;;;;;4967865;28;44887;-54
2023/06/24 13:46:20;;;;;;;;;;;27.70;35.90;;;;;;4963923;28;45486;-55
2023/06/24 13:48:46;;;;;;;;;;;27.70;35.60;;;;;;4969339;28;45471;-55
2023/06/24 13:51:11;;;;;;;;;;;27.70;35.40;;;;;;4962965;28;45085;-56
2023/06/24 13:53:37;;;;;;;;;;;27.70;35.40;;;;;;4979002;28;45446;-57
2023/06/24 13:56:02;;;;;;;;;;;27.80;35.40;;;;;;4942521;28;46097;-53
2023/06/24 13:58:28;;;;;;;;;;;27.80;35.30;;;;;;4975072;28;44849;-58
2023/06/24 14:00:53;;;;;;;;;;;27.80;35.50;;;;;;4959705;28;45031;-55
2023/06/24 14:03:20;;;;;;;;;;;27.80;35.50;;;;;;4982023;28;44799;-56
2023/06/24 14:05:45;;;;;;;;;;;27.80;35.50;;;;;;4964523;28;45564;-56
2023/06/24 14:08:11;;;;;;;;;;;27.80;35.60;;;;;;4971056;28;44680;-57
2023/06/24 14:10:36;;;;;;;;;;;27.80;35.60;;;;;;4972394;28;44593;-57
2023/06/24 14:13:01;;;;;;;;;;;27.80;35.90;;;;;;4981479;28;44989;-57
2023/06/24 14:15:27;;;;;;;1.85;1.70;;;27.80;35.70;;;;;;4966393;28;45377;-65
2023/06/24 14:17:52;;;;;;;5.25;2.72;;;27.80;37.20;;;;;;4974182;28;45203;-56
2023/06/24 14:20:18;;;;;;;3.92;2.00;;;28.10;36.40;;;;;;4953196;28;45152;-64
2023/06/24 14:22:44;;;;;;;2.10;1.90;;;27.90;36.70;;;;;;4967704;28;44903;-56
2023/06/24 14:25:09;;;;;;;2.25;2.05;;;27.90;36.80;;;;;;4971304;28;46169;-54
2023/06/24 14:27:35;;;;;;;2.33;1.95;;;27.90;36.80;;;;;;4955420;28;44931;-56
2023/06/24 14:30:01;;;;;;;3.05;2.13;;;27.90;36.80;;;;;;4976017;28;44823;-59
2023/06/24 14:32:26;;;;;;;4.32;1.95;;;27.90;36.80;;;;;;4965527;28;44830;-55
2023/06/24 14:34:52;;;;;;;2.55;1.90;;;27.90;37.00;;;;;;4969881;28;44865;-57
2023/06/24 14:37:17;;;;;;;4.68;2.05;;;27.90;37.00;;;;;;4971633;28;44933;-53
2023/06/24 14:39:43;;;;;;;2.95;2.10;;;27.90;36.90;;;;;;4975399;28;44908;-57
2023/06/24 14:42:08;;;;;;;2.63;2.10;;;27.90;36.80;;;;;;4970257;28;45251;-56
2023/06/24 14:44:34;;;;;;;2.20;1.85;;;27.90;36.80;;;;;;4975294;28;45157;-56
2023/06/24 14:46:59;;;;;;;3.90;1.92;;;27.90;36.80;;;;;;4961951;28;45038;-56
2023/06/24 14:49:25;;;;;;;6.40;2.30;;;27.90;36.70;;;;;;4947662;28;44974;-57
2023/06/24 14:51:51;;;;;;;2.42;2.10;;;27.90;36.80;;;;;;4969729;28;45095;-55
2023/06/24 14:54:18;;;;;;;2.50;2.15;;;28.00;36.80;;;;;;4976874;28;45905;-56
2023/06/24 14:56:44;;;;;;;2.20;1.65;;;28.00;36.60;;;;;;4967401;28;45074;-54
2023/06/24 14:59:09;;;;;;;2.78;2.00;;;28.00;36.40;;;;;;4971235;28;44894;-55
2023/06/24 15:01:35;;;;;;;2.00;1.77;;;28.00;36.00;;;;;;4948589;28;45061;-57
2023/06/24 15:04:01;;;;;;;2.30;1.83;;;28.10;35.70;;;;;;4956809;28;47367;-56
2023/06/24 15:06:26;;;;;;;2.65;2.30;;;28.10;35.40;;;;;;4961970;28;45442;-56
2023/06/24 15:08:52;;;;;;;1.92;1.70;;;28.10;35.00;;;;;;4967524;28;44849;-55
2023/06/24 15:11:17;;;;;;;3.83;1.60;;;28.10;35.00;;;;;;4963802;28;44692;-56
2023/06/24 15:13:43;;;;;;;2.15;1.77;;;28.20;34.80;;;;;;4971719;28;46152;-59
2023/06/24 15:16:08;;;;;;;3.35;1.88;;;28.20;34.90;;;;;;4961247;28;45060;-56
2023/06/24 15:18:34;;;;;;;2.42;1.98;;;28.20;34.70;;;;;;4967814;28;44948;-55
2023/06/24 15:20:59;;;;;;;2.20;1.70;;;28.20;34.60;;;;;;4960980;28;44784;-56
2023/06/24 15:23:26;;;;;;;3.83;1.70;;;28.20;34.40;;;;;;4974814;28;44994;-56
2023/06/24 15:25:52;;;;;;;2.80;2.10;;;28.20;34.20;;;;;;4948188;28;46210;-57
2023/06/24 15:28:17;;;;;;;3.53;1.67;;;28.20;34.10;;;;;;4977133;28;44767;-57
2023/06/24 15:30:43;;;;;;;2.25;1.75;;;28.20;34.10;;;;;;4962745;28;45104;-61
2023/06/24 15:33:09;;;;;;;5.78;2.10;;;28.20;34.10;;;;;;4971423;28;46012;-54
2023/06/24 15:35:34;;;;;;;2.10;1.88;;;28.20;34.20;;;;;;4961582;28;44864;-54
2023/06/24 15:38:00;;;;;;;2.15;1.95;;;28.20;34.20;;;;;;4953932;28;45273;-55
2023/06/24 15:40:26;;;;;;;2.05;1.60;;;28.20;34.30;;;;;;4946876;28;45251;-57
2023/06/24 15:42:51;;;;;;;1.95;1.75;;;28.20;34.30;;;;;;4974210;28;45626;-57
2023/06/24 15:45:17;;;;;;;2.05;1.67;;;28.20;34.30;;;;;;4965149;28;45018;-57
2023/06/24 15:47:42;;;;;;;3.70;1.90;;;28.20;34.40;;;;;;4960482;28;45043;-56
2023/06/24 15:50:09;;;;;;;2.40;2.20;;;28.20;34.50;;;;;;4965807;28;46356;-57
2023/06/24 15:52:35;;;;;;;3.40;2.10;;;28.20;34.30;;;;;;4954517;28;46378;-57
2023/06/24 15:55:00;;;;;;;3.38;1.95;;;28.20;34.20;;;;;;4971361;28;44795;-56
2023/06/24 15:57:26;;;;;;;2.08;1.65;;;28.30;34.10;;;;;;4962060;28;44997;-57
2023/06/24 15:59:51;;;;;;;2.20;1.92;;;28.30;34.10;;;;;;4952304;28;46468;-55
2023/06/24 16:02:18;;;;;;;2.33;1.90;;;28.30;34.00;;;;;;4942615;28;45358;-55
2023/06/24 16:04:44;;;;;;;3.95;1.73;;;28.30;34.10;;;;;;4934566;28;44997;-54
2023/06/24 16:07:09;;;;;;;2.47;2.05;;;28.30;34.10;;;;;;4942700;28;45074;-56
2023/06/24 16:09:35;;;;;;;3.03;2.20;;;28.30;34.00;;;;;;4952392;28;45173;-55
2023/06/24 16:12:00;;;;;;;3.70;2.20;;;28.30;34.20;;;;;;4942492;28;46268;-56
2023/06/24 16:14:26;;;;;;;1.92;1.67;;;28.30;34.00;;;;;;4954366;28;44759;-57
2023/06/24 16:16:53;;;;;;;2.03;1.80;;;28.30;33.90;;;;;;4941800;28;45095;-55
2023/06/24 16:19:18;;;;;;;2.72;1.80;;;28.30;33.90;;;;;;4950428;28;44917;-56
2023/06/24 16:21:44;;;;;;;2.13;1.65;;;28.30;34.10;;;;;;4943303;28;45886;-56
2023/06/24 16:24:11;;;;;;;2.55;1.95;;;28.30;34.10;;;;;;4932124;28;44937;-53
2023/06/24 16:26:36;;;;;;;2.50;2.05;;;28.30;33.90;;;;;;4946732;28;44631;-57
2023/06/24 16:29:02;;;;;;;2.17;1.77;;;28.30;33.50;;;;;;4948736;28;44868;-54
2023/06/24 16:31:28;;;;;;;1.90;1.52;;;28.30;33.80;;;;;;4942413;28;46303;-57
2023/06/24 16:33:53;;;;;;;2.15;1.95;;;28.30;33.70;;;;;;4913924;28;45031;-56
2023/06/24 16:36:19;;;;;;;2.70;1.98;;;28.30;33.70;;;;;;4932018;28;45261;-56
2023/06/24 16:38:44;;;;;;;2.03;1.70;;;28.30;33.70;;;;;;4947462;28;44705;-54
2023/06/24 16:41:10;;;;;;;2.58;1.63;;;28.30;33.60;;;;;;4942337;28;46142;-57
2023/06/24 16:43:35;;;;;;;1.88;1.70;;;28.30;33.80;;;;;;4954556;28;45162;-56
2023/06/24 16:46:01;;;;;;;2.10;1.88;;;28.30;33.90;;;;;;4942186;28;44862;-56
2023/06/24 16:48:26;;;;;;;5.63;1.83;;;28.30;34.00;;;;;;4929807;28;44909;-57
2023/06/24 16:50:52;;;;;;;2.78;1.73;;;28.30;34.00;;;;;;4926171;28;45963;-54